Terminal Aerodrome Forecast
Issued by NWS

Home | Current Version | Previous Version | Text Only | Print | Product List | Glossary Off
Versions: 1 2 3 4 5 6 7 8 9 10 11 12 13 14 15 16 17 18 19 20

000
FTUS43 KABR 160059 AAA
TAFATY
TAF AMD
KATY 160059Z 1601/1624 34018KT P6SM BKN035 OVC080
     FM160300 33014G21KT P6SM SKC
     FM160600 32008KT P6SM FEW250
     FM160900 27007KT P6SM SKC
     FM161700 22012KT P6SM SKC=

USA.gov is the U.S. government's official web portal to all federal, state and local government web resources and services.